Time;durP1;ratioP1;P1;durP2;ratioP2;P2;SDS_P1;SDS_P2;PMS_P1;PMS_P2;Temp;Humidity;BMP_temperature;BMP_pressure;BME280_temperature;BME280_humidity;BME280_pressure;Samples;Min_cycle;Max_cycle;Signal;HPM_P1;HPM_P2
2021/06/12 00:00:41;;;;;;;18.97;10.17;;;;;;;16.41;54.64;98882.93;125703;1093;102996;-71
2021/06/12 00:03:19;;;;;;;20.27;10.40;;;;;;;16.40;54.59;98880.41;125633;1093;102911;-73
2021/06/12 00:05:48;;;;;;;20.43;10.73;;;;;;;16.36;54.62;98878.04;125664;1093;103446;-70
2021/06/12 00:08:16;;;;;;;19.63;10.37;;;;;;;16.33;54.52;98885.53;125695;1092;102941;-70
2021/06/12 00:10:45;;;;;;;19.27;10.10;;;;;;;16.31;54.76;98887.53;125718;1093;102919;-70
2021/06/12 00:13:14;;;;;;;20.53;10.67;;;;;;;16.28;54.75;98885.17;125667;1093;103018;-70
2021/06/12 00:15:42;;;;;;;20.70;10.67;;;;;;;16.24;55.00;98875.74;125598;1093;103069;-71
2021/06/12 00:18:13;;;;;;;20.27;10.50;;;;;;;16.22;54.97;98878.56;125623;1093;102927;-71
2021/06/12 00:20:42;;;;;;;22.03;11.53;;;;;;;16.19;55.16;98877.05;125691;1092;102988;-70
2021/06/12 00:23:10;;;;;;;20.70;10.63;;;;;;;16.18;55.29;98869.98;125689;1093;102939;-71
2021/06/12 00:25:39;;;;;;;18.80;10.37;;;;;;;16.17;55.10;98875.48;125664;1093;103376;-71
2021/06/12 00:28:07;;;;;;;19.83;10.57;;;;;;;16.17;55.31;98876.34;125628;1092;103023;-70
2021/06/12 00:30:36;;;;;;;20.57;10.27;;;;;;;16.13;55.55;98874.10;125653;1093;102920;-70
2021/06/12 00:33:05;;;;;;;21.33;10.43;;;;;;;16.10;55.37;98877.95;125588;1093;103023;-70
2021/06/12 00:35:34;;;;;;;19.33;10.40;;;;;;;16.09;55.47;98876.26;125649;1093;103003;-70
2021/06/12 00:38:03;;;;;;;20.20;10.33;;;;;;;16.06;55.56;98871.20;125649;1093;103012;-70
2021/06/12 00:40:33;;;;;;;20.37;11.00;;;;;;;16.03;55.60;98871.49;125669;1093;103023;-70
2021/06/12 00:43:04;;;;;;;20.05;11.20;;;;;;;16.02;55.76;98862.63;125712;1092;102910;-70
2021/06/12 00:45:34;;;;;;;19.85;10.55;;;;;;;16.00;55.83;98864.61;125686;1093;103057;-70
2021/06/12 00:48:04;;;;;;;20.20;10.47;;;;;;;15.97;55.84;98858.69;125706;1093;103421;-70
2021/06/12 00:50:33;;;;;;;20.67;10.83;;;;;;;15.92;55.92;98867.20;125674;1093;103091;-71
2021/06/12 00:53:08;;;;;;;22.80;12.20;;;;;;;15.89;56.13;98862.99;125673;1093;103126;-71
2021/06/12 00:55:37;;;;;;;22.03;12.03;;;;;;;15.89;56.22;98862.99;125678;1093;102983;-73
2021/06/12 00:58:10;;;;;;;24.13;12.60;;;;;;;15.87;56.21;98864.13;125649;1093;102998;-72
2021/06/12 01:00:40;;;;;;;21.38;11.58;;;;;;;15.84;56.44;98851.84;125737;1093;102935;-71
2021/06/12 01:03:12;;;;;;;20.80;11.60;;;;;;;15.83;56.40;98854.66;125658;1093;103112;-71
2021/06/12 01:05:40;;;;;;;20.40;11.65;;;;;;;15.81;56.42;98851.28;125652;1092;102914;-72
2021/06/12 01:08:08;;;;;;;22.47;12.30;;;;;;;15.80;56.53;98855.81;125669;1093;102988;-71
2021/06/12 01:10:37;;;;;;;23.30;13.40;;;;;;;15.80;56.54;98858.50;125668;1093;103000;-71
2021/06/12 01:13:23;;;;;;;20.87;12.53;;;;;;;15.79;56.68;98854.13;125723;1093;103033;-71
2021/06/12 01:16:05;;;;;;;23.45;12.75;;;;;;;15.78;56.83;98861.31;125680;1093;103029;-71
2021/06/12 01:18:38;;;;;;;23.30;11.73;;;;;;;15.76;56.80;98859.78;126653;1093;103012;-70
2021/06/12 01:21:22;;;;;;;21.15;12.58;;;;;;;15.73;57.01;98854.72;125689;1094;102948;-70
2021/06/12 01:24:08;;;;;;;20.88;12.35;;;;;;;15.72;56.62;98859.22;125646;1093;102945;-69
2021/06/12 01:26:59;;;;;;;23.33;12.30;;;;;;;15.70;57.06;98858.53;125723;1092;102916;-69
2021/06/12 01:29:46;;;;;;;22.03;12.03;;;;;;;15.70;57.16;98863.06;125645;1093;102913;-69
2021/06/12 01:32:18;;;;;;;22.25;13.25;;;;;;;15.69;57.26;98866.73;125677;1092;102911;-70
2021/06/12 01:34:50;;;;;;;21.97;12.97;;;;;;;15.65;57.24;98862.66;125640;1092;102916;-72
2021/06/12 01:37:22;;;;;;;23.23;14.23;;;;;;;15.62;57.37;98859.28;125711;1093;102935;-72
2021/06/12 01:39:52;;;;;;;21.23;12.20;;;;;;;15.61;57.43;98862.95;125727;1091;103036;-72
2021/06/12 01:42:23;;;;;;;24.33;13.97;;;;;;;15.61;57.57;98865.64;125750;1092;102919;-72
2021/06/12 01:44:52;;;;;;;22.80;13.67;;;;;;;15.61;57.59;98854.91;125660;1092;103153;-72
2021/06/12 01:47:21;;;;;;;24.47;13.60;;;;;;;15.62;57.68;98858.45;125640;1093;102927;-71
2021/06/12 01:49:53;;;;;;;25.67;14.03;;;;;;;15.59;57.73;98851.54;125645;1093;102991;-73
2021/06/12 01:52:23;;;;;;;22.67;13.30;;;;;;;15.57;57.62;98856.20;125720;1093;103071;-72
2021/06/12 01:54:55;;;;;;;21.97;13.73;;;;;;;15.55;57.83;98855.51;125723;1093;103177;-71
2021/06/12 01:57:26;;;;;;;26.00;15.23;;;;;;;15.53;57.64;98848.63;125649;1093;103050;-72
2021/06/12 01:59:57;;;;;;;25.57;15.07;;;;;;;15.51;57.95;98848.75;125740;1093;102942;-71
2021/06/12 02:02:27;;;;;;;23.97;14.47;;;;;;;15.50;57.94;98843.55;125710;1093;102994;-72
2021/06/12 02:04:58;;;;;;;25.20;15.30;;;;;;;15.48;58.11;98841.88;125723;1093;102919;-72
2021/06/12 02:07:31;;;;;;;24.13;14.27;;;;;;;15.49;58.22;98848.06;125738;1093;103023;-70
2021/06/12 02:10:02;;;;;;;23.57;14.20;;;;;;;15.48;58.25;98843.72;125621;1093;103053;-71
2021/06/12 02:12:35;;;;;;;25.30;16.60;;;;;;;15.46;58.30;98843.02;125688;1093;102951;-72
2021/06/12 02:15:08;;;;;;;26.38;16.05;;;;;;;15.45;58.37;98847.52;125681;1092;102912;-72
2021/06/12 02:17:38;;;;;;;23.20;14.58;;;;;;;15.44;58.17;98845.84;125770;1093;103063;-72
2021/06/12 02:20:09;;;;;;;25.43;15.73;;;;;;;15.42;58.51;98849.67;125691;1091;102994;-72
2021/06/12 02:22:46;;;;;;;25.50;14.40;;;;;;;15.41;58.51;98846.13;125662;1093;103135;-72
2021/06/12 02:25:18;;;;;;;25.93;15.87;;;;;;;15.39;58.53;98848.11;126624;1093;102945;-72
2021/06/12 02:27:53;;;;;;;25.93;15.87;;;;;;;15.37;58.85;98843.91;125653;1093;103034;-72
2021/06/12 02:30:28;;;;;;;26.33;16.73;;;;;;;15.35;58.78;98848.56;125686;1093;103020;-72
2021/06/12 02:33:05;;;;;;;24.67;14.83;;;;;;;15.33;58.88;98838.84;125722;1093;103010;-72
2021/06/12 02:35:35;;;;;;;26.00;16.23;;;;;;;15.31;59.00;98846.18;125685;1093;104656;-73
2021/06/12 02:38:03;;;;;;;26.87;16.40;;;;;;;15.29;58.89;98845.48;125734;1093;103061;-72
2021/06/12 02:40:34;;;;;;;28.20;16.73;;;;;;;15.27;59.01;98843.95;125687;1093;102969;-72
2021/06/12 02:43:04;;;;;;;26.90;16.77;;;;;;;15.25;59.00;98851.30;125730;1093;103068;-70
2021/06/12 02:45:33;;;;;;;24.43;15.73;;;;;;;15.25;59.16;98845.94;125704;1093;103047;-73
2021/06/12 02:48:07;;;;;;;28.43;17.57;;;;;;;15.24;59.24;98853.11;125688;1093;103000;-75
2021/06/12 02:50:37;;;;;;;24.40;16.03;;;;;;;15.23;59.31;98850.59;125707;1093;102934;-72
2021/06/12 02:53:09;;;;;;;25.70;16.77;;;;;;;15.24;59.41;98847.76;125690;1093;102936;-72
2021/06/12 02:55:44;;;;;;;27.23;17.43;;;;;;;15.21;59.52;98845.38;125724;1093;102911;-73
2021/06/12 02:58:20;;;;;;;24.47;16.47;;;;;;;15.20;59.60;98846.36;125673;1093;103009;-72
2021/06/12 03:00:50;;;;;;;26.70;16.53;;;;;;;15.17;59.29;98842.16;125618;1093;103106;-72
2021/06/12 03:03:22;;;;;;;28.17;17.13;;;;;;;15.16;59.65;98847.64;125719;1093;103033;-73
2021/06/12 03:05:58;;;;;;;28.83;17.87;;;;;;;15.12;59.75;98852.46;125719;1093;102922;-73
2021/06/12 03:08:37;;;;;;;26.83;17.33;;;;;;;15.12;59.58;98848.92;125718;1093;103467;-72
2021/06/12 03:11:11;;;;;;;25.73;16.93;;;;;;;15.10;59.85;98848.22;125678;1093;103373;-73
2021/06/12 03:13:44;;;;;;;26.75;15.60;;;;;;;15.10;59.83;98851.76;125663;1093;102945;-73
2021/06/12 03:16:16;;;;;;;;;;;;;;;15.08;60.50;98847.55;125727;1092;102916;-74
2021/06/12 03:18:48;;;;;;;23.20;14.30;;;;;;;15.07;60.07;98848.55;125723;1093;103018;-73
2021/06/12 03:21:19;;;;;;;26.33;15.90;;;;;;;15.09;60.08;98852.75;125717;1093;102940;-73
2021/06/12 03:23:51;;;;;;;25.70;16.20;;;;;;;15.12;60.20;98851.59;125693;1093;103120;-73
2021/06/12 03:26:21;;;;;;;24.90;15.73;;;;;;;15.12;60.09;98849.78;125662;1093;102998;-73
2021/06/12 03:28:52;;;;;;;27.60;17.87;;;;;;;15.15;60.27;98849.48;125710;1091;103064;-73
2021/06/12 03:31:23;;;;;;;26.93;17.13;;;;;;;15.21;60.42;98855.26;125703;1093;102991;-74
2021/06/12 03:33:52;;;;;;;24.17;15.40;;;;;;;15.26;60.52;98855.66;125718;1093;102916;-72
2021/06/12 03:36:24;;;;;;;23.83;16.37;;;;;;;15.30;60.54;98857.03;125685;1093;103671;-72
2021/06/12 03:38:54;;;;;;;25.07;16.53;;;;;;;15.33;60.57;98854.92;125624;1093;102945;-73
2021/06/12 03:41:26;;;;;;;24.37;16.27;;;;;;;15.36;60.57;98848.41;125669;1094;102978;-74
2021/06/12 03:43:56;;;;;;;23.97;16.57;;;;;;;15.39;60.68;98852.64;125736;1093;103472;-72
2021/06/12 03:46:25;;;;;;;27.67;16.30;;;;;;;15.44;60.84;98856.56;125713;1093;102909;-72
2021/06/12 03:48:55;;;;;;;26.53;17.20;;;;;;;15.47;60.78;98853.58;125669;1093;103087;-71
2021/06/12 03:51:26;;;;;;;25.33;17.00;;;;;;;15.52;60.75;98863.02;125655;1092;103015;-71
2021/06/12 03:53:58;;;;;;;27.87;17.73;;;;;;;15.54;60.80;98861.86;126071;1093;102994;-72
2021/06/12 03:56:32;;;;;;;24.33;17.07;;;;;;;15.53;60.81;98854.81;125642;1093;102935;-72
2021/06/12 03:59:03;;;;;;;26.93;17.50;;;;;;;15.56;60.78;98859.05;125669;1093;103090;-72
2021/06/12 04:01:31;;;;;;;31.13;17.53;;;;;;;15.55;60.82;98857.36;125677;1093;104046;-72
2021/06/12 04:04:00;;;;;;;26.40;18.13;;;;;;;15.57;60.97;98866.09;125672;1093;102987;-72
2021/06/12 04:06:28;;;;;;;24.03;16.10;;;;;;;15.60;61.01;98866.63;125698;1093;103054;-72
2021/06/12 04:08:56;;;;;;;27.05;16.15;;;;;;;15.63;61.13;98852.94;125652;1093;102911;-72
2021/06/12 04:11:25;;;;;;;24.73;16.00;;;;;;;15.66;61.11;98857.17;125725;1093;102916;-73
2021/06/12 04:13:53;;;;;;;27.87;16.70;;;;;;;15.68;61.08;98860.55;125749;1092;103041;-71
2021/06/12 04:16:21;;;;;;;27.30;16.13;;;;;;;15.72;61.20;98866.44;125714;1092;103045;-71
2021/06/12 04:18:50;;;;;;;25.97;15.93;;;;;;;15.74;61.33;98859.09;125713;1093;103007;-70
2021/06/12 04:21:18;;;;;;;27.40;17.53;;;;;;;15.76;61.27;98854.42;125720;1093;103023;-71
2021/06/12 04:23:47;;;;;;;26.60;16.83;;;;;;;15.78;61.46;98861.31;125675;1093;102948;-71
2021/06/12 04:26:15;;;;;;;27.27;16.57;;;;;;;15.84;61.34;98856.34;125675;1093;102999;-72
2021/06/12 04:28:45;;;;;;;28.47;16.47;;;;;;;15.88;61.48;98855.08;125696;1093;102986;-71
2021/06/12 04:31:14;;;;;;;26.10;16.50;;;;;;;15.93;61.51;98855.48;125714;1091;102935;-72
2021/06/12 04:33:44;;;;;;;25.23;15.33;;;;;;;15.99;61.61;98860.23;125669;1093;103007;-72
2021/06/12 04:36:12;;;;;;;26.77;16.77;;;;;;;16.05;61.67;98856.09;125679;1093;103432;-73
2021/06/12 04:38:41;;;;;;;26.43;16.57;;;;;;;16.10;61.69;98859.16;125714;1093;103090;-73
2021/06/12 04:41:09;;;;;;;25.77;17.53;;;;;;;16.16;61.79;98860.38;125667;1093;102966;-72
2021/06/12 04:43:37;;;;;;;25.97;16.90;;;;;;;16.23;61.99;98872.20;125714;1093;103010;-71
2021/06/12 04:46:07;;;;;;;23.10;15.57;;;;;;;16.30;61.81;98867.91;125654;1093;103090;-72
2021/06/12 04:48:35;;;;;;;25.33;15.97;;;;;;;16.36;62.05;98861.07;125738;1094;103084;-72
2021/06/12 04:51:06;;;;;;;25.47;16.27;;;;;;;16.43;62.09;98869.38;125676;1093;102934;-72
2021/06/12 04:53:35;;;;;;;25.30;16.55;;;;;;;16.49;62.01;98861.53;125684;1093;103062;-71
2021/06/12 04:56:03;;;;;;;24.47;15.27;;;;;;;16.59;62.00;98860.61;125657;1093;103519;-72
2021/06/12 04:58:32;;;;;;;25.20;16.20;;;;;;;16.68;61.94;98865.05;125736;1093;103039;-72
2021/06/12 05:01:03;;;;;;;26.07;16.03;;;;;;;16.79;62.14;98870.16;125680;1093;102938;-71
2021/06/12 05:03:31;;;;;;;26.77;16.37;;;;;;;16.88;62.21;98865.70;125650;1093;103015;-70
2021/06/12 05:05:59;;;;;;;26.93;15.90;;;;;;;17.00;61.94;98863.63;125589;1094;103127;-72
2021/06/12 05:08:29;;;;;;;24.73;14.93;;;;;;;17.13;62.24;98865.88;125648;1093;103064;-70
2021/06/12 05:10:58;;;;;;;22.87;14.87;;;;;;;17.24;62.51;98873.68;125630;1093;102994;-70
2021/06/12 05:13:27;;;;;;;23.13;14.27;;;;;;;17.34;62.32;98870.01;125708;1093;103417;-71
2021/06/12 05:16:02;;;;;;;27.00;15.83;;;;;;;17.41;62.16;98869.22;125721;1093;102916;-71
2021/06/12 05:18:39;;;;;;;25.53;14.50;;;;;;;17.51;62.59;98860.20;125676;1093;103032;-71
2021/06/12 05:21:11;;;;;;;23.10;15.37;;;;;;;17.62;62.23;98861.75;125672;1093;102939;-70
2021/06/12 05:23:41;;;;;;;23.43;14.50;;;;;;;17.71;62.18;98856.23;125693;1093;103003;-71
2021/06/12 05:26:11;;;;;;;22.10;13.80;;;;;;;17.79;62.58;98862.64;125697;1092;103544;-71
2021/06/12 05:28:42;;;;;;;24.67;15.20;;;;;;;17.88;62.27;98860.81;125611;1093;103004;-71
2021/06/12 05:31:10;;;;;;;23.47;15.00;;;;;;;17.93;62.39;98858.48;125651;1093;103019;-70
2021/06/12 05:33:38;;;;;;;23.80;14.80;;;;;;;18.00;62.23;98870.30;125695;1092;103076;-70
2021/06/12 05:36:09;;;;;;;23.07;13.27;;;;;;;18.08;62.75;98858.70;125649;1093;102996;-71
2021/06/12 05:38:38;;;;;;;24.23;14.10;;;;;;;18.18;62.26;98864.78;125662;1093;103412;-71
2021/06/12 05:41:09;;;;;;;25.27;15.43;;;;;;;18.35;62.72;98857.56;125789;1093;102942;-69
2021/06/12 05:43:37;;;;;;;22.03;13.17;;;;;;;18.58;62.80;98860.44;125661;1093;103022;-72
2021/06/12 05:46:08;;;;;;;23.20;13.53;;;;;;;18.80;62.34;98852.66;125517;1092;102955;-72
2021/06/12 05:48:36;;;;;;;22.67;13.20;;;;;;;19.00;62.57;98855.86;125635;1092;103544;-70
2021/06/12 05:51:04;;;;;;;20.70;12.83;;;;;;;19.17;62.69;98847.75;125650;1093;103419;-74
2021/06/12 05:53:33;;;;;;;21.10;12.20;;;;;;;19.28;62.74;98852.78;125633;1093;102972;-78
2021/06/12 05:56:01;;;;;;;19.50;12.30;;;;;;;19.39;62.53;98848.00;125595;1092;102969;-74
2021/06/12 05:58:30;;;;;;;21.17;12.70;;;;;;;19.44;62.51;98838.39;125621;1093;103007;-72
2021/06/12 06:00:59;;;;;;;21.53;12.13;;;;;;;19.49;62.24;98840.55;125668;1093;103444;-74
2021/06/12 06:03:28;;;;;;;23.27;11.77;;;;;;;19.59;62.30;98840.34;125601;1093;102998;-75
2021/06/12 06:05:56;;;;;;;19.67;11.43;;;;;;;19.66;62.47;98846.72;125592;1091;103032;-73
2021/06/12 06:08:25;;;;;;;25.37;13.47;;;;;;;19.77;62.50;98843.63;125501;1092;103019;-70
2021/06/12 06:10:53;;;;;;;19.73;12.57;;;;;;;19.92;62.33;98842.92;125962;1093;102939;-71
2021/06/12 06:13:21;;;;;;;20.43;11.47;;;;;;;20.02;62.22;98840.81;125569;1093;102939;-74
2021/06/12 06:15:54;;;;;;;21.17;11.27;;;;;;;20.16;62.00;98833.83;125536;1092;102915;-70
2021/06/12 06:18:22;;;;;;;22.43;11.13;;;;;;;20.29;62.07;98835.92;125636;1093;103001;-71
2021/06/12 06:20:50;;;;;;;19.13;10.70;;;;;;;20.46;62.35;98838.48;125627;1092;103035;-71
2021/06/12 06:23:20;;;;;;;17.90;10.07;;;;;;;20.59;62.30;98835.16;125632;1092;102888;-71
2021/06/12 06:25:48;;;;;;;19.40;10.23;;;;;;;20.76;62.33;98843.98;125636;1093;103089;-73
2021/06/12 06:28:18;;;;;;;19.83;10.60;;;;;;;20.92;62.16;98838.42;125711;1093;102921;-71
2021/06/12 06:30:46;;;;;;;20.23;10.77;;;;;;;21.05;61.96;98837.78;125543;1092;103515;-71
2021/06/12 06:33:15;;;;;;;19.20;10.30;;;;;;;21.23;61.76;98829.30;125433;1093;103156;-70
2021/06/12 06:35:44;;;;;;;21.27;10.40;;;;;;;21.38;61.93;98828.47;125608;1093;102909;-72
2021/06/12 06:38:13;;;;;;;20.07;9.23;;;;;;;21.55;61.93;98829.09;125626;1093;103029;-71
2021/06/12 06:40:42;;;;;;;18.13;9.40;;;;;;;21.73;61.77;98827.90;125650;1093;103424;-71
2021/06/12 06:43:12;;;;;;;15.67;8.37;;;;;;;21.90;62.10;98828.50;125684;1092;103164;-71
2021/06/12 06:45:43;;;;;;;21.53;9.83;;;;;;;22.07;61.74;98832.63;125532;1092;102931;-70
2021/06/12 06:48:15;;;;;;;16.73;8.80;;;;;;;22.27;61.55;98835.55;125648;1093;102964;-71
2021/06/12 06:50:46;;;;;;;;;;;;;;;22.44;61.16;98833.44;125610;1093;102994;-71
2021/06/12 06:53:15;;;;;;;15.20;7.90;;;;;;;22.66;61.34;98830.72;125637;1092;102913;-72
2021/06/12 06:55:44;;;;;;;20.97;8.60;;;;;;;22.93;61.16;98827.38;125535;1093;102349;-70
2021/06/12 06:58:14;;;;;;;16.03;8.13;;;;;;;23.57;61.22;98820.88;125587;1093;103057;-70
2021/06/12 07:00:42;;;;;;;13.70;7.30;;;;;;;25.12;59.53;98821.06;125567;1093;102934;-71
2021/06/12 07:03:10;;;;;;;14.63;7.17;;;;;;;26.58;59.07;98822.48;126554;1093;103530;-71
2021/06/12 07:05:39;;;;;;;13.10;6.70;;;;;;;27.85;58.34;98806.69;125534;1092;102930;-69
2021/06/12 07:08:07;;;;;;;13.40;7.33;;;;;;;28.93;58.82;98811.35;125733;1093;102946;-70
2021/06/12 07:10:35;;;;;;;13.67;6.37;;;;;;;30.32;58.87;98819.91;125592;1093;102974;-71
2021/06/12 07:13:04;;;;;;;12.77;6.63;;;;;;;31.35;58.37;98817.95;125525;1093;102999;-74
2021/06/12 07:15:33;;;;;;;14.10;6.23;;;;;;;32.00;57.85;98808.00;125579;1092;103005;-71
2021/06/12 07:18:01;;;;;;;14.20;5.90;;;;;;;32.76;57.46;98810.90;125563;1092;102964;-70
2021/06/12 07:20:30;;;;;;;12.97;6.13;;;;;;;33.57;57.70;98810.84;125630;1093;102914;-70
2021/06/12 07:22:58;;;;;;;14.93;6.93;;;;;;;34.75;57.21;98806.63;125568;1091;103062;-72
2021/06/12 07:25:28;;;;;;;14.10;6.20;;;;;;;35.56;56.65;98810.31;125557;1093;102933;-70
2021/06/12 07:27:57;;;;;;;10.40;5.40;;;;;;;36.38;55.86;98807.33;125524;1093;102968;-72
2021/06/12 07:30:27;;;;;;;12.57;6.60;;;;;;;36.68;55.21;98806.27;125622;1093;102941;-70
2021/06/12 07:32:56;;;;;;;15.57;6.63;;;;;;;37.28;54.91;98807.89;125535;1093;103031;-70
2021/06/12 07:35:27;;;;;;;12.08;5.90;;;;;;;37.79;54.09;98814.75;125553;1093;103139;-70
2021/06/12 07:37:55;;;;;;;8.13;5.13;;;;;;;37.95;52.74;98812.61;125559;1093;103088;-70
2021/06/12 07:40:26;;;;;;;10.50;6.00;;;;;;;37.42;51.48;98809.93;125575;1093;102934;-71
2021/06/12 07:42:54;;;;;;;9.93;5.33;;;;;;;37.20;51.47;98808.54;125600;1093;102943;-71
2021/06/12 07:45:26;;;;;;;12.10;5.13;;;;;;;37.63;51.19;98818.84;125589;1093;102974;-71
2021/06/12 07:47:56;;;;;;;12.43;5.87;;;;;;;38.20;50.67;98812.52;125570;1093;103007;-70
2021/06/12 07:50:26;;;;;;;12.27;4.90;;;;;;;38.48;49.48;98807.09;125627;1093;103087;-71
2021/06/12 07:52:54;;;;;;;8.47;4.17;;;;;;;38.34;48.33;98815.35;125637;1092;102913;-70
2021/06/12 07:55:23;;;;;;;10.90;4.47;;;;;;;38.22;48.12;98816.63;125685;1093;103585;-70
2021/06/12 07:57:51;;;;;;;6.53;3.97;;;;;;;38.16;47.10;98815.06;126085;1092;102933;-71
2021/06/12 08:00:21;;;;;;;11.07;4.47;;;;;;;37.97;46.50;98806.74;125493;1093;102796;-71
2021/06/12 08:02:49;;;;;;;10.47;4.60;;;;;;;38.09;46.66;98807.13;125592;1093;103162;-75
2021/06/12 08:05:18;;;;;;;12.13;5.27;;;;;;;38.62;45.95;98809.91;125480;1093;103135;-71
2021/06/12 08:07:46;;;;;;;8.03;4.47;;;;;;;38.83;45.19;98800.08;125939;1093;103010;-70
2021/06/12 08:10:15;;;;;;;7.60;4.40;;;;;;;38.47;44.15;98805.44;125583;1093;102909;-71
2021/06/12 08:12:45;;;;;;;8.10;4.50;;;;;;;38.76;44.22;98815.48;125554;1092;103222;-71
2021/06/12 08:15:14;;;;;;;11.23;4.00;;;;;;;38.60;42.73;98804.66;125599;1093;103364;-72
2021/06/12 08:17:43;;;;;;;8.50;4.20;;;;;;;38.12;42.37;98800.13;125585;1092;103425;-71
2021/06/12 08:20:13;;;;;;;12.08;3.70;;;;;;;37.82;42.06;98808.61;125485;1093;103055;-70
2021/06/12 08:22:41;;;;;;;7.20;3.70;;;;;;;37.66;41.51;98807.16;125566;1093;102910;-72
2021/06/12 08:25:11;;;;;;;7.10;3.57;;;;;;;37.36;40.93;98793.34;125547;1093;103055;-71
2021/06/12 08:27:39;;;;;;;11.30;6.00;;;;;;;37.74;41.07;98794.55;125557;1093;103060;-70
2021/06/12 08:30:10;;;;;;;7.60;3.83;;;;;;;38.10;40.24;98794.89;125794;1093;103698;-72
2021/06/12 08:32:39;;;;;;;6.38;3.05;;;;;;;37.87;39.78;98791.04;125489;1093;103042;-71
2021/06/12 08:35:08;;;;;;;5.80;3.00;;;;;;;37.58;39.21;98794.78;125591;1093;103031;-72
2021/06/12 08:37:37;;;;;;;8.33;4.13;;;;;;;37.50;39.18;98799.02;125550;1093;103070;-71
2021/06/12 08:40:09;;;;;;;11.50;4.07;;;;;;;37.53;38.75;98794.84;125538;1093;103073;-68
2021/06/12 08:42:38;;;;;;;9.10;3.87;;;;;;;37.77;38.58;98786.47;125618;1092;103007;-67
2021/06/12 08:45:09;;;;;;;11.73;4.20;;;;;;;38.22;38.35;98791.64;125551;1092;102980;-67
2021/06/12 08:47:38;;;;;;;6.48;3.75;;;;;;;38.39;38.06;98782.78;126157;1093;102909;-77
2021/06/12 08:50:09;;;;;;;4.53;3.33;;;;;;;38.28;37.48;98793.21;125540;1093;103170;-75
2021/06/12 08:52:39;;;;;;;10.67;3.27;;;;;;;38.13;37.15;98785.12;125421;1093;103051;-73
2021/06/12 08:55:12;;;;;;;11.80;3.93;;;;;;;38.25;36.93;98779.93;125365;1092;103090;-75
2021/06/12 08:57:40;;;;;;;10.53;4.33;;;;;;;38.55;36.50;98788.89;125571;1093;103112;-74
2021/06/12 09:00:14;;;;;;;18.83;4.60;;;;;;;38.27;35.96;98774.09;125486;1093;102965;-74
2021/06/12 09:03:07;;;;;;;11.57;5.03;;;;;;;38.09;36.08;98781.33;125610;1093;103055;-74
2021/06/12 09:05:42;;;;;;;8.17;4.43;;;;;;;37.92;35.18;98779.06;125659;1093;102935;-74
2021/06/12 09:08:14;;;;;;;5.50;3.97;;;;;;;37.57;34.67;98778.42;125595;1092;103019;-75
2021/06/12 09:10:56;;;;;;;9.10;4.73;;;;;;;37.09;34.95;98774.58;125592;1093;102932;-75
2021/06/12 09:13:49;;;;;;;14.97;5.37;;;;;;;37.10;34.89;98776.20;125577;1093;102935;-76
2021/06/12 09:16:34;;;;;;;9.17;4.03;;;;;;;36.89;34.33;98764.48;125580;1092;102930;-75
2021/06/12 09:19:23;;;;;;;10.53;4.70;;;;;;;36.91;33.83;98765.86;125635;1093;103066;-76
2021/06/12 09:22:00;;;;;;;8.77;4.70;;;;;;;36.66;34.01;98772.48;125612;1093;103020;-75
2021/06/12 09:24:41;;;;;;;11.37;3.70;;;;;;;36.62;33.58;98775.03;125743;1092;100601;-73
2021/06/12 09:27:18;;;;;;;12.30;4.08;;;;;;;36.30;32.84;98770.83;125618;1093;103275;-75
2021/06/12 09:29:51;;;;;;;8.67;3.80;;;;;;;35.41;32.99;98769.70;125585;1092;103027;-76
2021/06/12 09:32:22;;;;;;;9.90;3.70;;;;;;;34.31;32.05;98770.17;125673;1093;103061;-75
2021/06/12 09:35:02;;;;;;;5.87;3.47;;;;;;;33.02;32.39;98770.58;125528;1091;103071;-74
2021/06/12 09:37:34;;;;;;;10.37;4.30;;;;;;;32.27;32.33;98770.56;125680;1093;102913;-76
2021/06/12 09:40:13;;;;;;;12.20;5.90;;;;;;;32.10;32.11;98770.69;125934;1093;103061;-76
2021/06/12 09:42:58;;;;;;;11.47;4.20;;;;;;;31.92;32.05;98759.80;125611;1093;102811;-76
2021/06/12 09:45:36;;;;;;;13.45;4.50;;;;;;;31.78;31.93;98759.39;125628;1093;102937;-74
2021/06/12 09:48:13;;;;;;;8.27;3.50;;;;;;;31.53;31.97;98751.67;125684;1093;103039;-77
2021/06/12 09:50:46;;;;;;;8.43;3.67;;;;;;;31.45;31.97;98761.20;125674;1092;102938;-75
2021/06/12 09:53:37;;;;;;;9.07;4.10;;;;;;;31.35;31.75;98755.58;125586;1093;103508;-77
2021/06/12 09:56:11;;;;;;;8.75;3.50;;;;;;;31.24;31.75;98759.28;125629;1093;102916;-76
2021/06/12 09:58:39;;;;;;;6.80;3.30;;;;;;;31.02;31.90;98747.16;125696;1093;102935;-74
2021/06/12 10:01:15;;;;;;;7.50;3.23;;;;;;;30.81;31.95;98751.55;125625;1093;103006;-74
2021/06/12 10:03:44;;;;;;;10.63;3.60;;;;;;;30.64;31.34;98754.32;125782;1093;103159;-74
2021/06/12 10:06:14;;;;;;;8.20;3.30;;;;;;;30.40;32.01;98751.74;127644;1092;102695;-74
2021/06/12 10:08:46;;;;;;;8.13;3.47;;;;;;;30.15;31.80;98752.15;126088;1092;103062;-74
2021/06/12 10:11:15;;;;;;;7.20;3.30;;;;;;;29.74;31.85;98749.49;125742;1091;103087;-75
2021/06/12 10:13:45;;;;;;;9.43;3.70;;;;;;;29.62;31.56;98743.23;125652;1093;103161;-74
2021/06/12 10:16:16;;;;;;;6.77;3.30;;;;;;;29.47;31.43;98733.63;125751;1093;103026;-74
2021/06/12 10:18:51;;;;;;;7.30;3.28;;;;;;;29.20;31.23;98727.84;125667;1093;103004;-74
2021/06/12 10:21:24;;;;;;;8.87;3.60;;;;;;;29.08;31.22;98731.46;125640;1093;103009;-72
2021/06/12 10:23:53;;;;;;;6.80;3.47;;;;;;;28.90;31.85;98726.13;125684;1093;102936;-73
2021/06/12 10:26:22;;;;;;;13.60;3.40;;;;;;;28.86;31.31;98727.67;125788;1093;103364;-74
2021/06/12 10:28:52;;;;;;;6.43;3.13;;;;;;;28.85;31.75;98718.65;125666;1093;102999;-73
2021/06/12 10:31:27;;;;;;;7.57;3.70;;;;;;;28.70;31.83;98721.00;125622;1093;102927;-74
2021/06/12 10:33:56;;;;;;;7.83;3.87;;;;;;;28.51;31.77;98716.48;125642;1093;103000;-74
2021/06/12 10:36:30;;;;;;;5.87;3.57;;;;;;;28.31;31.70;98703.17;125718;1093;102904;-74
2021/06/12 10:39:12;;;;;;;6.37;3.40;;;;;;;28.11;31.47;98708.94;125664;1093;103006;-74
2021/06/12 10:41:41;;;;;;;8.63;3.70;;;;;;;27.98;31.59;98707.26;125696;1093;102908;-74
2021/06/12 10:44:09;;;;;;;9.27;3.70;;;;;;;27.92;31.58;98709.01;125661;1093;103167;-74
2021/06/12 10:46:47;;;;;;;11.60;4.57;;;;;;;27.91;31.66;98695.59;125632;1092;103113;-73
2021/06/12 10:49:28;;;;;;;9.27;4.10;;;;;;;27.87;32.05;98705.33;125652;1093;103001;-74
2021/06/12 10:51:57;;;;;;;9.33;3.90;;;;;;;27.78;32.00;98693.91;125648;1093;103360;-74
2021/06/12 10:54:38;;;;;;;10.83;3.97;;;;;;;27.78;32.12;98691.99;125680;1092;103032;-74
2021/06/12 10:57:18;;;;;;;13.40;4.13;;;;;;;27.76;32.09;98691.39;125739;1093;103390;-74
2021/06/12 10:59:51;;;;;;;9.30;3.67;;;;;;;27.74;32.16;98681.77;125741;1092;102916;-74
2021/06/12 11:02:30;;;;;;;14.75;4.10;;;;;;;27.78;32.14;98693.91;125743;1093;102712;-74
2021/06/12 11:05:01;;;;;;;8.73;3.90;;;;;;;27.71;32.12;98682.23;125901;1092;103064;-73
2021/06/12 11:07:36;;;;;;;8.73;3.90;;;;;;;27.70;32.38;98667.77;125765;1093;103377;-72
2021/06/12 11:10:11;;;;;;;7.33;4.10;;;;;;;27.64;32.51;98674.97;125679;1093;102921;-72
2021/06/12 11:12:41;;;;;;;10.17;4.30;;;;;;;27.58;32.34;98673.17;125659;1093;102943;-73
2021/06/12 11:15:22;;;;;;;13.07;4.63;;;;;;;27.51;32.33;98663.41;125671;1093;102939;-72
2021/06/12 11:18:17;;;;;;;9.80;4.37;;;;;;;27.43;32.62;98657.18;125711;1093;103016;-73
2021/06/12 11:21:03;;;;;;;7.37;4.00;;;;;;;27.37;32.63;98654.55;125724;1093;102994;-73
2021/06/12 11:23:54;;;;;;;12.30;4.27;;;;;;;27.28;32.53;98645.87;125641;1092;102916;-72
2021/06/12 11:26:24;;;;;;;10.43;3.97;;;;;;;27.23;32.47;98637.53;125730;1093;103151;-72